sensor_id;sensor_type;location;lat;lon;timestamp;pressure;altitude;pressure_sealevel;temperature;humidity
5753;BME280;2901;42.140;24.760;2023-03-03T00:00:46;99780.25;;;7.80;100.00
5753;BME280;2901;42.140;24.760;2023-03-03T00:03:15;99763.00;;;7.70;100.00
5753;BME280;2901;42.140;24.760;2023-03-03T00:05:42;99773.41;;;7.79;100.00
5753;BME280;2901;42.140;24.760;2023-03-03T00:08:07;99770.81;;;7.79;100.00
5753;BME280;2901;42.140;24.760;2023-03-03T00:10:33;99773.41;;;7.81;100.00
5753;BME280;2901;42.140;24.760;2023-03-03T00:12:59;99759.63;;;7.80;100.00
5753;BME280;2901;42.140;24.760;2023-03-03T00:15:26;99758.75;;;7.75;100.00
5753;BME280;2901;42.140;24.760;2023-03-03T00:17:51;99751.03;;;7.78;100.00
5753;BME280;2901;42.140;24.760;2023-03-03T00:20:37;99741.59;;;7.80;100.00
5753;BME280;2901;42.140;24.760;2023-03-03T00:25:50;99736.50;;;7.85;100.00
5753;BME280;2901;42.140;24.760;2023-03-03T00:30:56;99725.38;;;7.92;100.00
5753;BME280;2901;42.140;24.760;2023-03-03T00:33:33;99717.63;;;7.94;100.00
5753;BME280;2901;42.140;24.760;2023-03-03T00:38:39;99715.94;;;7.97;100.00
5753;BME280;2901;42.140;24.760;2023-03-03T00:43:46;99713.34;;;7.91;100.00
5753;BME280;2901;42.140;24.760;2023-03-03T00:46:15;99697.84;;;7.88;100.00
5753;BME280;2901;42.140;24.760;2023-03-03T00:48:42;99688.34;;;7.84;100.00
5753;BME280;2901;42.140;24.760;2023-03-03T00:53:45;99700.47;;;7.93;100.00
5753;BME280;2901;42.140;24.760;2023-03-03T00:56:10;99691.03;;;7.98;100.00
5753;BME280;2901;42.140;24.760;2023-03-03T00:58:35;99691.03;;;7.98;100.00
5753;BME280;2901;42.140;24.760;2023-03-03T01:01:01;99692.75;;;7.96;100.00
5753;BME280;2901;42.140;24.760;2023-03-03T01:03:26;99676.34;;;7.86;100.00
5753;BME280;2901;42.140;24.760;2023-03-03T01:05:53;99690.09;;;7.88;100.00
5753;BME280;2901;42.140;24.760;2023-03-03T01:08:18;99689.28;;;7.92;100.00
5753;BME280;2901;42.140;24.760;2023-03-03T01:10:51;99688.47;;;7.96;100.00
5753;BME280;2901;42.140;24.760;2023-03-03T01:13:23;99682.44;;;7.97;100.00
5753;BME280;2901;42.140;24.760;2023-03-03T01:15:50;99686.72;;;7.95;100.00
5753;BME280;2901;42.140;24.760;2023-03-03T01:18:15;99683.31;;;7.99;100.00
5753;BME280;2901;42.140;24.760;2023-03-03T01:20:41;99685.91;;;8.02;100.00
5753;BME280;2901;42.140;24.760;2023-03-03T01:23:07;99688.53;;;8.05;100.00
5753;BME280;2901;42.140;24.760;2023-03-03T01:25:32;99689.38;;;8.03;100.00
5753;BME280;2901;42.140;24.760;2023-03-03T01:27:58;99686.75;;;7.98;100.00
5753;BME280;2901;42.140;24.760;2023-03-03T01:30:24;99691.94;;;8.04;100.00
5753;BME280;2901;42.140;24.760;2023-03-03T01:32:50;99689.38;;;8.07;100.00
5753;BME280;2901;42.140;24.760;2023-03-03T01:35:16;99689.38;;;8.03;100.00
5753;BME280;2901;42.140;24.760;2023-03-03T01:37:42;99668.66;;;7.92;100.00
5753;BME280;2901;42.140;24.760;2023-03-03T01:40:15;99685.09;;;8.03;100.00
5753;BME280;2901;42.140;24.760;2023-03-03T01:42:41;99685.94;;;8.05;100.00
5753;BME280;2901;42.140;24.760;2023-03-03T01:47:37;99689.38;;;8.06;100.00
5753;BME280;2901;42.140;24.760;2023-03-03T01:50:08;99685.09;;;8.06;100.00
5753;BME280;2901;42.140;24.760;2023-03-03T01:52:41;99684.19;;;8.00;100.00
5753;BME280;2901;42.140;24.760;2023-03-03T01:55:21;99680.75;;;7.99;100.00
5753;BME280;2901;42.140;24.760;2023-03-03T01:57:57;99674.69;;;7.97;100.00
5753;BME280;2901;42.140;24.760;2023-03-03T02:00:25;99678.16;;;7.99;100.00
5753;BME280;2901;42.140;24.760;2023-03-03T02:02:52;99673.88;;;8.00;100.00
5753;BME280;2901;42.140;24.760;2023-03-03T02:05:18;99667.00;;;7.99;100.00
5753;BME280;2901;42.140;24.760;2023-03-03T02:07:44;99668.72;;;8.01;100.00
5753;BME280;2901;42.140;24.760;2023-03-03T02:10:15;99669.56;;;7.99;100.00
5753;BME280;2901;42.140;24.760;2023-03-03T02:12:53;99671.34;;;8.06;100.00
5753;BME280;2901;42.140;24.760;2023-03-03T02:15:25;99681.63;;;8.04;100.00
5753;BME280;2901;42.140;24.760;2023-03-03T02:17:53;99669.63;;;8.08;100.00
5753;BME280;2901;42.140;24.760;2023-03-03T02:28:21;99668.75;;;8.06;100.00
5753;BME280;2901;42.140;24.760;2023-03-03T02:30:47;99661.00;;;8.04;100.00
5753;BME280;2901;42.140;24.760;2023-03-03T02:33:13;99664.44;;;8.03;100.00
5753;BME280;2901;42.140;24.760;2023-03-03T02:35:39;99664.41;;;8.00;100.00
5753;BME280;2901;42.140;24.760;2023-03-03T02:38:14;99658.31;;;7.91;100.00
5753;BME280;2901;42.140;24.760;2023-03-03T02:40:47;99661.78;;;7.94;100.00
5753;BME280;2901;42.140;24.760;2023-03-03T02:43:16;99662.63;;;7.92;100.00
5753;BME280;2901;42.140;24.760;2023-03-03T02:45:44;99666.09;;;7.95;100.00
5753;BME280;2901;42.140;24.760;2023-03-03T02:48:10;99660.91;;;7.91;100.00
5753;BME280;2901;42.140;24.760;2023-03-03T02:50:36;99662.66;;;7.93;100.00
5753;BME280;2901;42.140;24.760;2023-03-03T02:53:02;99661.78;;;7.94;100.00
5753;BME280;2901;42.140;24.760;2023-03-03T02:55:27;99664.34;;;7.88;100.00
5753;BME280;2901;42.140;24.760;2023-03-03T02:57:52;99655.72;;;7.86;100.00
5753;BME280;2901;42.140;24.760;2023-03-03T03:00:18;99662.59;;;7.87;100.00
5753;BME280;2901;42.140;24.760;2023-03-03T03:02:45;99666.91;;;7.88;100.00
5753;BME280;2901;42.140;24.760;2023-03-03T03:05:11;99658.25;;;7.81;100.00
5753;BME280;2901;42.140;24.760;2023-03-03T03:07:36;99658.22;;;7.72;100.00
5753;BME280;2901;42.140;24.760;2023-03-03T03:10:02;99654.72;;;7.67;100.00
5753;BME280;2901;42.140;24.760;2023-03-03T03:12:27;99647.81;;;7.60;100.00
5753;BME280;2901;42.140;24.760;2023-03-03T03:14:53;99653.84;;;7.65;100.00
5753;BME280;2901;42.140;24.760;2023-03-03T03:17:18;99651.31;;;7.67;100.00
5753;BME280;2901;42.140;24.760;2023-03-03T03:19:43;99653.00;;;7.66;100.00
5753;BME280;2901;42.140;24.760;2023-03-03T03:22:09;99640.94;;;7.62;100.00
5753;BME280;2901;42.140;24.760;2023-03-03T03:24:34;99641.84;;;7.69;100.00
5753;BME280;2901;42.140;24.760;2023-03-03T03:26:59;99647.91;;;7.72;100.00
5753;BME280;2901;42.140;24.760;2023-03-03T03:29:25;99645.31;;;7.69;100.00
5753;BME280;2901;42.140;24.760;2023-03-03T03:31:50;99638.41;;;7.64;100.00
5753;BME280;2901;42.140;24.760;2023-03-03T03:34:15;99645.25;;;7.62;100.00
5753;BME280;2901;42.140;24.760;2023-03-03T03:36:41;99647.00;;;7.69;100.00
5753;BME280;2901;42.140;24.760;2023-03-03T03:39:07;99644.47;;;7.75;100.00
5753;BME280;2901;42.140;24.760;2023-03-03T03:41:32;99644.41;;;7.66;100.00
5753;BME280;2901;42.140;24.760;2023-03-03T03:43:58;99646.16;;;7.71;100.00
5753;BME280;2901;42.140;24.760;2023-03-03T03:46:23;99639.31;;;7.73;100.00
5753;BME280;2901;42.140;24.760;2023-03-03T03:48:49;99650.53;;;7.81;100.00
5753;BME280;2901;42.140;24.760;2023-03-03T03:51:14;99649.69;;;7.79;100.00
5753;BME280;2901;42.140;24.760;2023-03-03T03:53:39;99648.81;;;7.80;100.00
5753;BME280;2901;42.140;24.760;2023-03-03T03:56:05;99652.22;;;7.78;100.00
5753;BME280;2901;42.140;24.760;2023-03-03T03:58:30;99646.19;;;7.74;100.00
5753;BME280;2901;42.140;24.760;2023-03-03T04:01:01;99646.13;;;7.65;100.00
5753;BME280;2901;42.140;24.760;2023-03-03T04:03:27;99642.66;;;7.57;100.00
5753;BME280;2901;42.140;24.760;2023-03-03T04:05:52;99633.16;;;7.55;100.00
5753;BME280;2901;42.140;24.760;2023-03-03T04:08:19;99642.63;;;7.59;100.00
5753;BME280;2901;42.140;24.760;2023-03-03T04:10:44;99645.25;;;7.63;100.00
5753;BME280;2901;42.140;24.760;2023-03-03T04:13:10;99645.28;;;7.68;100.00
5753;BME280;2901;42.140;24.760;2023-03-03T04:15:35;99636.69;;;7.69;100.00
5753;BME280;2901;42.140;24.760;2023-03-03T04:18:02;99647.00;;;7.66;100.00
5753;BME280;2901;42.140;24.760;2023-03-03T04:20:27;99637.50;;;7.57;100.00
5753;BME280;2901;42.140;24.760;2023-03-03T04:22:53;99627.09;;;7.48;100.00
5753;BME280;2901;42.140;24.760;2023-03-03T04:25:19;99634.03;;;7.55;100.00
5753;BME280;2901;42.140;24.760;2023-03-03T04:27:44;99639.88;;;7.38;100.00
5753;BME280;2901;42.140;24.760;2023-03-03T04:30:11;99637.28;;;7.33;100.00
5753;BME280;2901;42.140;24.760;2023-03-03T04:32:37;99639.78;;;7.25;100.00
5753;BME280;2901;42.140;24.760;2023-03-03T04:35:02;99635.56;;;7.34;100.00
5753;BME280;2901;42.140;24.760;2023-03-03T04:37:27;99640.63;;;7.24;100.00
5753;BME280;2901;42.140;24.760;2023-03-03T04:39:53;99630.28;;;7.18;100.00
5753;BME280;2901;42.140;24.760;2023-03-03T04:42:18;99633.78;;;7.26;100.00
5753;BME280;2901;42.140;24.760;2023-03-03T04:44:44;99633.81;;;7.29;100.00
5753;BME280;2901;42.140;24.760;2023-03-03T04:47:09;99639.81;;;7.28;100.00
5753;BME280;2901;42.140;24.760;2023-03-03T04:49:35;99633.81;;;7.29;100.00
5753;BME280;2901;42.140;24.760;2023-03-03T04:52:01;99634.69;;;7.30;100.00
5753;BME280;2901;42.140;24.760;2023-03-03T04:54:26;99634.69;;;7.31;100.00
5753;BME280;2901;42.140;24.760;2023-03-03T04:56:51;99631.31;;;7.39;100.00
5753;BME280;2901;42.140;24.760;2023-03-03T04:59:17;99633.00;;;7.34;100.00
5753;BME280;2901;42.140;24.760;2023-03-03T05:01:42;99632.97;;;7.30;100.00
5753;BME280;2901;42.140;24.760;2023-03-03T05:04:08;99631.28;;;7.36;100.00
5753;BME280;2901;42.140;24.760;2023-03-03T05:06:33;99637.31;;;7.38;100.00
5753;BME280;2901;42.140;24.760;2023-03-03T05:08:58;99633.94;;;7.43;100.00
5753;BME280;2901;42.140;24.760;2023-03-03T05:11:24;99635.72;;;7.50;100.00
5753;BME280;2901;42.140;24.760;2023-03-03T05:13:49;99639.19;;;7.57;100.00
5753;BME280;2901;42.140;24.760;2023-03-03T05:16:14;99652.88;;;7.50;100.00
5753;BME280;2901;42.140;24.760;2023-03-03T05:18:40;99648.66;;;7.61;100.00
5753;BME280;2901;42.140;24.760;2023-03-03T05:21:05;99651.16;;;7.52;100.00
5753;BME280;2901;42.140;24.760;2023-03-03T05:23:31;99645.09;;;7.44;100.00
5753;BME280;2901;42.140;24.760;2023-03-03T05:25:56;99646.84;;;7.48;100.00
5753;BME280;2901;42.140;24.760;2023-03-03T05:28:22;99645.09;;;7.44;100.00
5753;BME280;2901;42.140;24.760;2023-03-03T05:30:47;99646.00;;;7.47;100.00
5753;BME280;2901;42.140;24.760;2023-03-03T05:33:14;99627.03;;;7.42;100.00
5753;BME280;2901;42.140;24.760;2023-03-03T05:35:40;99651.19;;;7.55;100.00
5753;BME280;2901;42.140;24.760;2023-03-03T05:38:06;99654.69;;;7.60;100.00
5753;BME280;2901;42.140;24.760;2023-03-03T05:40:31;99645.25;;;7.60;100.00
5753;BME280;2901;42.140;24.760;2023-03-03T05:42:56;99646.91;;;7.54;100.00
5753;BME280;2901;42.140;24.760;2023-03-03T05:45:22;99651.22;;;7.56;100.00
5753;BME280;2901;42.140;24.760;2023-03-03T05:47:49;99648.72;;;7.64;100.00
5753;BME280;2901;42.140;24.760;2023-03-03T05:50:16;99657.31;;;7.66;100.00
5753;BME280;2901;42.140;24.760;2023-03-03T05:52:42;99651.22;;;7.59;100.00
5753;BME280;2901;42.140;24.760;2023-03-03T05:55:09;99657.31;;;7.66;100.00
5753;BME280;2901;42.140;24.760;2023-03-03T05:57:35;99654.75;;;7.72;100.00
5753;BME280;2901;42.140;24.760;2023-03-03T06:00:03;99654.75;;;7.72;100.00
5753;BME280;2901;42.140;24.760;2023-03-03T06:02:30;99667.69;;;7.78;100.00
5753;BME280;2901;42.140;24.760;2023-03-03T06:04:55;99658.25;;;7.78;100.00
5753;BME280;2901;42.140;24.760;2023-03-03T06:07:21;99663.38;;;7.75;100.00
5753;BME280;2901;42.140;24.760;2023-03-03T06:09:46;99662.59;;;7.87;100.00
5753;BME280;2901;42.140;24.760;2023-03-03T06:12:11;99666.94;;;7.91;100.00
5753;BME280;2901;42.140;24.760;2023-03-03T06:14:37;99672.16;;;7.99;100.00
5753;BME280;2901;42.140;24.760;2023-03-03T06:17:02;99671.34;;;8.10;100.00
5753;BME280;2901;42.140;24.760;2023-03-03T06:19:28;99675.69;;;8.17;100.00
5753;BME280;2901;42.140;24.760;2023-03-03T06:21:53;99673.16;;;8.22;100.00
5753;BME280;2901;42.140;24.760;2023-03-03T06:24:18;99674.88;;;8.24;100.00
5753;BME280;2901;42.140;24.760;2023-03-03T06:26:44;99686.13;;;8.31;100.00
5753;BME280;2901;42.140;24.760;2023-03-03T06:29:09;99674.09;;;8.31;100.00
5753;BME280;2901;42.140;24.760;2023-03-03T06:31:35;99685.28;;;8.33;100.00
5753;BME280;2901;42.140;24.760;2023-03-03T06:34:01;99681.81;;;8.28;100.00
5753;BME280;2901;42.140;24.760;2023-03-03T06:36:26;99685.28;;;8.35;100.00
5753;BME280;2901;42.140;24.760;2023-03-03T06:38:52;99682.69;;;8.37;100.00
5753;BME280;2901;42.140;24.760;2023-03-03T06:41:17;99688.75;;;8.40;100.00
5753;BME280;2901;42.140;24.760;2023-03-03T06:43:43;99684.50;;;8.45;100.00
5753;BME280;2901;42.140;24.760;2023-03-03T06:46:08;99686.28;;;8.58;100.00
5753;BME280;2901;42.140;24.760;2023-03-03T06:48:34;99686.28;;;8.64;100.00
5753;BME280;2901;42.140;24.760;2023-03-03T06:51:01;99684.56;;;8.69;100.00
5753;BME280;2901;42.140;24.760;2023-03-03T06:53:27;99685.50;;;8.80;100.00
5753;BME280;2901;42.140;24.760;2023-03-03T06:55:56;99683.72;;;8.66;100.00
5753;BME280;2901;42.140;24.760;2023-03-03T06:58:22;99690.63;;;8.76;100.00
5753;BME280;2901;42.140;24.760;2023-03-03T07:00:57;99688.03;;;8.68;100.00
5753;BME280;2901;42.140;24.760;2023-03-03T07:03:25;99685.44;;;8.65;100.00
5753;BME280;2901;42.140;24.760;2023-03-03T07:05:52;99683.69;;;8.63;100.00
5753;BME280;2901;42.140;24.760;2023-03-03T07:08:20;99693.19;;;8.67;100.00
5753;BME280;2901;42.140;24.760;2023-03-03T07:10:47;99691.50;;;8.75;100.00
5753;BME280;2901;42.140;24.760;2023-03-03T07:15:48;99681.97;;;8.59;100.00
5753;BME280;2901;42.140;24.760;2023-03-03T07:18:34;99688.09;;;8.79;100.00
5753;BME280;2901;42.140;24.760;2023-03-03T07:21:12;99685.50;;;8.79;100.00
5753;BME280;2901;42.140;24.760;2023-03-03T07:23:39;99688.94;;;8.78;100.00
5753;BME280;2901;42.140;24.760;2023-03-03T07:26:11;99696.69;;;8.81;100.00
5753;BME280;2901;42.140;24.760;2023-03-03T07:28:40;99687.25;;;8.88;100.00
5753;BME280;2901;42.140;24.760;2023-03-03T07:31:19;99695.06;;;9.09;100.00
5753;BME280;2901;42.140;24.760;2023-03-03T07:33:49;99680.44;;;9.17;100.00
5753;BME280;2901;42.140;24.760;2023-03-03T07:36:26;99690.78;;;9.15;100.00
5753;BME280;2901;42.140;24.760;2023-03-03T07:38:53;99679.56;;;9.25;100.00
5753;BME280;2901;42.140;24.760;2023-03-03T07:41:19;99676.13;;;9.23;100.00
5753;BME280;2901;42.140;24.760;2023-03-03T07:48:52;99683.06;;;9.35;99.50
5753;BME280;2901;42.140;24.760;2023-03-03T07:56:42;99677.91;;;9.67;97.51
5753;BME280;2901;42.140;24.760;2023-03-03T07:59:26;99672.72;;;9.62;97.37
5753;BME280;2901;42.140;24.760;2023-03-03T08:01:56;99669.28;;;9.66;97.10
5753;BME280;2901;42.140;24.760;2023-03-03T08:04:38;99666.69;;;9.75;97.21
5753;BME280;2901;42.140;24.760;2023-03-03T08:07:10;99670.13;;;9.85;96.74
5753;BME280;2901;42.140;24.760;2023-03-03T08:09:42;99658.94;;;9.84;96.52
5753;BME280;2901;42.140;24.760;2023-03-03T08:12:41;99667.53;;;9.86;96.83
5753;BME280;2901;42.140;24.760;2023-03-03T08:15:17;99657.19;;;9.94;97.39
5753;BME280;2901;42.140;24.760;2023-03-03T08:17:44;99653.72;;;9.92;97.89
5753;BME280;2901;42.140;24.760;2023-03-03T08:22:54;99652.03;;;9.94;98.42
5753;BME280;2901;42.140;24.760;2023-03-03T08:25:19;99640.81;;;9.86;98.58
5753;BME280;2901;42.140;24.760;2023-03-03T08:27:45;99640.81;;;9.89;98.38
5753;BME280;2901;42.140;24.760;2023-03-03T08:30:11;99647.72;;;9.85;98.51
5753;BME280;2901;42.140;24.760;2023-03-03T08:32:36;99641.66;;;9.85;98.86
5753;BME280;2901;42.140;24.760;2023-03-03T08:35:01;99640.84;;;9.84;98.53
5753;BME280;2901;42.140;24.760;2023-03-03T08:37:27;99636.50;;;9.86;99.12
5753;BME280;2901;42.140;24.760;2023-03-03T08:39:52;99630.47;;;9.90;98.50
5753;BME280;2901;42.140;24.760;2023-03-03T08:42:17;99627.88;;;9.94;98.43
5753;BME280;2901;42.140;24.760;2023-03-03T08:44:43;99613.22;;;9.93;99.00
5753;BME280;2901;42.140;24.760;2023-03-03T08:47:09;99608.06;;;9.82;98.67
5753;BME280;2901;42.140;24.760;2023-03-03T08:49:34;99622.69;;;9.95;99.66
5753;BME280;2901;42.140;24.760;2023-03-03T08:51:59;99625.25;;;9.98;99.96
5753;BME280;2901;42.140;24.760;2023-03-03T08:54:25;99634.72;;;10.08;99.40
5753;BME280;2901;42.140;24.760;2023-03-03T08:56:51;99617.50;;;10.15;99.31
5753;BME280;2901;42.140;24.760;2023-03-03T08:59:16;99626.09;;;10.21;99.59
5753;BME280;2901;42.140;24.760;2023-03-03T09:01:42;99627.84;;;10.18;97.51
5753;BME280;2901;42.140;24.760;2023-03-03T09:04:09;99627.84;;;10.15;97.69
5753;BME280;2901;42.140;24.760;2023-03-03T09:06:35;99631.28;;;10.09;97.84
5753;BME280;2901;42.140;24.760;2023-03-03T09:09:00;99620.97;;;10.03;99.60
5753;BME280;2901;42.140;24.760;2023-03-03T09:11:27;99627.00;;;10.07;100.00
5753;BME280;2901;42.140;24.760;2023-03-03T09:14:14;99623.53;;;10.17;100.00
5753;BME280;2901;42.140;24.760;2023-03-03T09:16:46;99620.03;;;10.28;100.00
5753;BME280;2901;42.140;24.760;2023-03-03T09:19:34;99613.13;;;10.36;100.00
5753;BME280;2901;42.140;24.760;2023-03-03T09:22:16;99623.41;;;10.52;100.00
5753;BME280;2901;42.140;24.760;2023-03-03T09:24:42;99619.09;;;10.57;99.65
5753;BME280;2901;42.140;24.760;2023-03-03T09:27:28;99615.53;;;10.71;99.95
5753;BME280;2901;42.140;24.760;2023-03-03T09:29:56;99601.72;;;10.75;100.00
5753;BME280;2901;42.140;24.760;2023-03-03T09:32:43;99602.50;;;10.88;99.78
5753;BME280;2901;42.140;24.760;2023-03-03T09:37:52;99601.59;;;10.93;98.34
5753;BME280;2901;42.140;24.760;2023-03-03T09:46:17;99607.69;;;10.88;97.44
5753;BME280;2901;42.140;24.760;2023-03-03T09:49:03;99592.97;;;10.94;97.22
5753;BME280;2901;42.140;24.760;2023-03-03T09:54:29;99600.63;;;11.07;96.37
5753;BME280;2901;42.140;24.760;2023-03-03T09:57:24;99588.56;;;11.04;95.93
5753;BME280;2901;42.140;24.760;2023-03-03T10:11:02;99602.75;;;10.39;97.23
5753;BME280;2901;42.140;24.760;2023-03-03T10:13:40;99603.72;;;10.17;99.17
5753;BME280;2901;42.140;24.760;2023-03-03T10:16:27;99595.06;;;10.02;100.00
5753;BME280;2901;42.140;24.760;2023-03-03T10:21:58;99591.72;;;9.47;100.00
5753;BME280;2901;42.140;24.760;2023-03-03T10:24:36;99580.53;;;9.23;100.00
5753;BME280;2901;42.140;24.760;2023-03-03T10:40:46;99573.63;;;8.88;100.00
5753;BME280;2901;42.140;24.760;2023-03-03T10:43:24;99566.75;;;9.00;100.00
5753;BME280;2901;42.140;24.760;2023-03-03T11:00:24;99553.00;;;9.28;100.00
5753;BME280;2901;42.140;24.760;2023-03-03T11:08:26;99536.59;;;9.32;100.00
5753;BME280;2901;42.140;24.760;2023-03-03T11:16:31;99541.78;;;9.40;100.00
5753;BME280;2901;42.140;24.760;2023-03-03T11:19:24;99527.97;;;9.49;100.00
5753;BME280;2901;42.140;24.760;2023-03-03T11:33:20;99527.75;;;10.26;99.00
5753;BME280;2901;42.140;24.760;2023-03-03T11:40:54;99514.84;;;10.21;100.00
5753;BME280;2901;42.140;24.760;2023-03-03T11:43:29;99519.16;;;10.22;98.37
5753;BME280;2901;42.140;24.760;2023-03-03T11:46:02;99504.50;;;10.15;98.74
5753;BME280;2901;42.140;24.760;2023-03-03T11:51:04;99502.66;;;10.38;99.00
5753;BME280;2901;42.140;24.760;2023-03-03T11:53:36;99495.66;;;10.59;100.00
5753;BME280;2901;42.140;24.760;2023-03-03T11:56:29;99490.47;;;10.57;99.13
5753;BME280;2901;42.140;24.760;2023-03-03T12:01:35;99490.16;;;10.97;99.10
5753;BME280;2901;42.140;24.760;2023-03-03T12:04:09;99491.81;;;11.07;96.92
5753;BME280;2901;42.140;24.760;2023-03-03T12:09:37;99484.69;;;11.31;97.01
5753;BME280;2901;42.140;24.760;2023-03-03T12:12:24;99496.78;;;11.31;92.10
5753;BME280;2901;42.140;24.760;2023-03-03T12:15:05;99482.41;;;11.00;90.98
5753;BME280;2901;42.140;24.760;2023-03-03T12:26:33;99471.56;;;11.48;93.63
5753;BME280;2901;42.140;24.760;2023-03-03T12:29:18;99460.53;;;11.29;90.52
5753;BME280;2901;42.140;24.760;2023-03-03T12:34:43;99467.47;;;11.24;93.02
5753;BME280;2901;42.140;24.760;2023-03-03T12:37:33;99469.09;;;11.34;93.53
5753;BME280;2901;42.140;24.760;2023-03-03T12:48:07;99467.94;;;11.61;92.18
5753;BME280;2901;42.140;24.760;2023-03-03T12:55:52;99473.09;;;11.63;91.01
5753;BME280;2901;42.140;24.760;2023-03-03T13:03:48;99466.50;;;11.36;90.66
5753;BME280;2901;42.140;24.760;2023-03-03T13:06:31;99468.53;;;11.04;89.71
5753;BME280;2901;42.140;24.760;2023-03-03T13:17:14;99451.81;;;10.31;94.89
5753;BME280;2901;42.140;24.760;2023-03-03T13:19:53;99457.91;;;10.21;94.37
5753;BME280;2901;42.140;24.760;2023-03-03T13:27:22;99468.13;;;10.47;95.15
5753;BME280;2901;42.140;24.760;2023-03-03T13:30:23;99457.66;;;10.58;94.67
5753;BME280;2901;42.140;24.760;2023-03-03T13:32:59;99457.59;;;10.68;93.79
5753;BME280;2901;42.140;24.760;2023-03-03T13:35:37;99452.53;;;10.52;92.61
5753;BME280;2901;42.140;24.760;2023-03-03T13:38:05;99448.31;;;10.40;92.89
5753;BME280;2901;42.140;24.760;2023-03-03T13:40:47;99456.94;;;10.37;93.56
5753;BME280;2901;42.140;24.760;2023-03-03T13:43:18;99453.59;;;10.22;94.52
5753;BME280;2901;42.140;24.760;2023-03-03T13:45:58;99444.97;;;10.18;94.25
5753;BME280;2901;42.140;24.760;2023-03-03T13:51:44;99445.78;;;10.32;94.54
5753;BME280;2901;42.140;24.760;2023-03-03T13:57:09;99447.63;;;10.03;95.21
5753;BME280;2901;42.140;24.760;2023-03-03T13:59:53;99449.38;;;10.00;95.85
5753;BME280;2901;42.140;24.760;2023-03-03T14:05:02;99439.88;;;9.99;96.37
5753;BME280;2901;42.140;24.760;2023-03-03T14:07:36;99441.53;;;10.13;96.51
5753;BME280;2901;42.140;24.760;2023-03-03T14:10:12;99435.50;;;10.20;95.99
5753;BME280;2901;42.140;24.760;2023-03-03T14:13:05;99441.50;;;10.27;95.73
5753;BME280;2901;42.140;24.760;2023-03-03T14:15:49;99432.78;;;10.38;95.57
5753;BME280;2901;42.140;24.760;2023-03-03T14:18:28;99432.81;;;10.35;94.18
5753;BME280;2901;42.140;24.760;2023-03-03T14:21:08;99430.22;;;10.37;94.11
5753;BME280;2901;42.140;24.760;2023-03-03T14:23:57;99420.81;;;10.27;94.51
5753;BME280;2901;42.140;24.760;2023-03-03T14:26:24;99432.81;;;10.31;94.83
5753;BME280;2901;42.140;24.760;2023-03-03T14:28:50;99438.88;;;10.31;94.37
5753;BME280;2901;42.140;24.760;2023-03-03T14:31:21;99440.59;;;10.34;94.16
5753;BME280;2901;42.140;24.760;2023-03-03T14:36:27;99431.03;;;10.42;93.83
5753;BME280;2901;42.140;24.760;2023-03-03T14:38:54;99422.34;;;10.54;93.72
5753;BME280;2901;42.140;24.760;2023-03-03T14:41:22;99425.72;;;10.63;92.28
5753;BME280;2901;42.140;24.760;2023-03-03T14:44:24;99424.81;;;10.66;91.90
5753;BME280;2901;42.140;24.760;2023-03-03T14:47:03;99419.59;;;10.70;92.48
5753;BME280;2901;42.140;24.760;2023-03-03T14:49:32;99417.00;;;10.70;91.62
5753;BME280;2901;42.140;24.760;2023-03-03T14:52:04;99422.19;;;10.72;90.76
5753;BME280;2901;42.140;24.760;2023-03-03T14:54:41;99421.31;;;10.73;91.34
5753;BME280;2901;42.140;24.760;2023-03-03T14:57:14;99412.66;;;10.74;91.39
5753;BME280;2901;42.140;24.760;2023-03-03T14:59:54;99424.75;;;10.75;90.75
5753;BME280;2901;42.140;24.760;2023-03-03T15:02:29;99429.09;;;10.68;90.82
5753;BME280;2901;42.140;24.760;2023-03-03T15:05:28;99421.41;;;10.58;89.31
5753;BME280;2901;42.140;24.760;2023-03-03T15:08:22;99419.75;;;10.52;90.18
5753;BME280;2901;42.140;24.760;2023-03-03T15:10:43;99418.06;;;10.47;90.82
5753;BME280;2901;42.140;24.760;2023-03-03T15:18:24;99429.22;;;10.55;91.90
5753;BME280;2901;42.140;24.760;2023-03-03T15:21:11;99423.19;;;10.53;92.44
5753;BME280;2901;42.140;24.760;2023-03-03T15:23:54;99424.06;;;10.53;92.53
5753;BME280;2901;42.140;24.760;2023-03-03T15:26:26;99423.19;;;10.56;92.57
5753;BME280;2901;42.140;24.760;2023-03-03T15:29:00;99431.72;;;10.67;92.23
5753;BME280;2901;42.140;24.760;2023-03-03T15:42:32;99437.72;;;10.72;92.10
5753;BME280;2901;42.140;24.760;2023-03-03T15:45:30;99441.16;;;10.71;91.72
5753;BME280;2901;42.140;24.760;2023-03-03T15:50:45;99445.56;;;10.63;91.66
5753;BME280;2901;42.140;24.760;2023-03-03T16:00:52;99444.81;;;10.50;93.08
5753;BME280;2901;42.140;24.760;2023-03-03T16:03:30;99443.09;;;10.46;93.57
5753;BME280;2901;42.140;24.760;2023-03-03T16:06:15;99442.22;;;10.44;93.57
5753;BME280;2901;42.140;24.760;2023-03-03T16:09:00;99449.19;;;10.39;93.56
5753;BME280;2901;42.140;24.760;2023-03-03T16:11:51;99464.75;;;10.33;93.61
5753;BME280;2901;42.140;24.760;2023-03-03T16:35:42;99478.66;;;10.14;94.82
5753;BME280;2901;42.140;24.760;2023-03-03T16:38:16;99471.72;;;10.11;94.79
5753;BME280;2901;42.140;24.760;2023-03-03T16:40:54;99479.50;;;10.16;95.25
5753;BME280;2901;42.140;24.760;2023-03-03T16:43:30;99482.94;;;10.12;95.08
5753;BME280;2901;42.140;24.760;2023-03-03T16:46:14;99482.94;;;10.12;95.40
5753;BME280;2901;42.140;24.760;2023-03-03T16:49:00;99483.81;;;10.11;95.60
5753;BME280;2901;42.140;24.760;2023-03-03T16:51:49;99490.72;;;10.13;94.93
5753;BME280;2901;42.140;24.760;2023-03-03T17:02:51;99495.97;;;9.89;96.23
5753;BME280;2901;42.140;24.760;2023-03-03T17:16:58;99502.97;;;9.61;97.90
5753;BME280;2901;42.140;24.760;2023-03-03T17:19:52;99503.81;;;9.56;98.12
5753;BME280;2901;42.140;24.760;2023-03-03T17:22:44;99513.31;;;9.54;97.85
5753;BME280;2901;42.140;24.760;2023-03-03T17:31:07;99514.19;;;9.45;98.50
5753;BME280;2901;42.140;24.760;2023-03-03T17:36:31;99527.13;;;9.41;99.49
5753;BME280;2901;42.140;24.760;2023-03-03T17:39:05;99534.88;;;9.30;99.71
5753;BME280;2901;42.140;24.760;2023-03-03T17:42:04;99540.06;;;9.30;100.00
5753;BME280;2901;42.140;24.760;2023-03-03T17:47:08;99539.19;;;9.26;100.00
5753;BME280;2901;42.140;24.760;2023-03-03T17:50:04;99545.25;;;9.21;100.00
5753;BME280;2901;42.140;24.760;2023-03-03T18:12:41;99546.94;;;9.04;100.00
5753;BME280;2901;42.140;24.760;2023-03-03T18:15:26;99553.00;;;8.95;100.00